Airport ID:K63S
Update Time (UTC):06/05/2021 13:27
Wind Speed (Knots):0
Wind Direction (Magnetic):40
Temperature (°C):7
Dew Point (°C):4
Humidity (%):79
Altimeter (inHg):30
Density Altitude (Feet):
Visibility:10+
Clouds (Hundreds of feet):CLR
Present Weather:
METAR:METAR K63S 061325Z AUTO 00000KT 10SM CLR 07/04 A3000 RMK A01

The data displayed is for advisory purposes only and is not to be used for flight planning or operations.